createdAt,value
2023-05-20T00:01:34.929Z,78.9
2023-05-20T00:07:24.633Z,79.6
2023-05-20T00:12:24.656Z,81.1
2023-05-20T00:17:24.681Z,80.5
2023-05-20T00:22:34.966Z,80.4
2023-05-20T00:28:24.692Z,79
2023-05-20T00:33:34.955Z,80.8
2023-05-20T00:39:24.681Z,80.7
2023-05-20T00:44:34.943Z,81.5
2023-05-20T00:49:35.000Z,82.8
2023-05-20T00:55:24.679Z,83.3
2023-05-20T01:00:24.670Z,82.2
2023-05-20T01:05:35.166Z,83.4
2023-05-20T01:16:24.818Z,83.3
2023-05-20T01:21:24.672Z,84.2
2023-05-20T01:26:34.940Z,83.4
2023-05-20T01:31:34.975Z,82.8
2023-05-20T01:36:34.987Z,83.5
2023-05-20T01:41:35.007Z,84.9
2023-05-20T01:47:24.670Z,84
2023-05-20T01:52:24.669Z,83.5
2023-05-20T01:57:34.941Z,83.4
2023-05-20T02:03:24.677Z,85.4
2023-05-20T02:08:34.957Z,86.1
2023-05-20T02:14:24.678Z,85
2023-05-20T02:19:34.960Z,85.9
2023-05-20T02:30:24.658Z,87.1
2023-05-20T02:35:24.690Z,86.7
2023-05-20T02:40:24.693Z,86.3
2023-05-20T02:45:34.974Z,87.4
2023-05-20T02:50:34.934Z,86.2
2023-05-20T02:55:35.390Z,87.1
2023-05-20T03:01:24.719Z,86.3
2023-05-20T03:06:24.685Z,87.4
2023-05-20T03:11:34.976Z,88.6
2023-05-20T03:17:24.734Z,87.9
2023-05-20T03:22:34.975Z,89.8
2023-05-20T03:28:24.652Z,91.4
2023-05-20T03:33:24.704Z,92.3
2023-05-20T03:38:34.967Z,92
2023-05-20T03:44:24.686Z,93.3
2023-05-20T03:50:24.705Z,93.9
2023-05-20T03:55:35.215Z,94.8
2023-05-20T04:00:34.975Z,96.6
2023-05-20T04:05:35.151Z,94.6
2023-05-20T04:11:24.674Z,95.9
2023-05-20T04:16:24.722Z,94.5
2023-05-20T04:21:34.973Z,94.6
2023-05-20T04:27:24.674Z,94.8
2023-05-20T04:32:24.771Z,93.2
2023-05-20T04:37:34.988Z,92.9
2023-05-20T04:43:24.696Z,94.4
2023-05-20T04:48:24.693Z,93.6
2023-05-20T04:53:34.972Z,93.8
2023-05-20T04:59:24.730Z,94.3
2023-05-20T05:04:35.041Z,98.6
2023-05-20T05:10:24.652Z,96.1
2023-05-20T05:15:24.711Z,95.2
2023-05-20T05:20:34.983Z,94.1
2023-05-20T05:26:24.711Z,95.2
2023-05-20T05:42:24.669Z,91.8
2023-05-20T05:47:24.702Z,88.7
2023-05-20T05:52:34.962Z,90.3
2023-05-20T05:57:34.979Z,88.7
2023-05-20T06:02:35.105Z,88.4
2023-05-20T06:08:24.713Z,87
2023-05-20T06:13:34.959Z,87.7
2023-05-20T06:18:34.991Z,87.2
2023-05-20T06:24:24.856Z,88.3
2023-05-20T06:29:24.720Z,88.1
2023-05-20T06:34:34.984Z,87.4
2023-05-20T06:40:24.731Z,84.5
2023-05-20T06:45:35.249Z,85.2
2023-05-20T06:51:24.959Z,81.5
2023-05-20T07:01:35.027Z,79.6
2023-05-20T07:07:24.707Z,76.7
2023-05-20T07:12:36.680Z,77
2023-05-20T07:17:35.058Z,76.7
2023-05-20T07:22:35.029Z,77.4
2023-05-20T07:28:24.719Z,76.3
2023-05-20T07:33:34.993Z,74.5
2023-05-20T07:39:24.697Z,75.3
2023-05-20T07:44:24.721Z,75.6
2023-05-20T07:49:34.996Z,74.3
2023-05-20T08:00:24.695Z,72.1
2023-05-20T08:05:24.797Z,70.1
2023-05-20T08:10:34.979Z,66.7
2023-05-20T08:15:35.448Z,64.6
2023-05-20T08:21:24.697Z,60.5
2023-05-20T08:26:24.730Z,61.8
2023-05-20T08:31:35.058Z,59.9
2023-05-20T08:36:34.999Z,54.3
2023-05-20T08:41:35.004Z,59.7
2023-05-20T08:46:35.026Z,57.6
2023-05-20T08:52:24.786Z,58.6
2023-05-20T08:57:35.019Z,54
2023-05-20T09:03:24.742Z,55.5
2023-05-20T09:08:35.035Z,57.6
2023-05-20T09:14:24.752Z,60.5
2023-05-20T09:19:35.054Z,59.3
2023-05-20T09:25:24.742Z,58.9
2023-05-20T09:35:24.756Z,54.7
2023-05-20T09:40:35.041Z,54.4
2023-05-20T09:45:35.296Z,57.1
2023-05-20T09:51:24.722Z,55.3
2023-05-20T09:56:24.756Z,58.9
2023-05-20T10:01:35.075Z,60.4
2023-05-20T10:06:35.036Z,61.1
2023-05-20T10:17:35.105Z,59.6
2023-05-20T10:23:24.735Z,59.2
2023-05-20T10:28:24.740Z,57.9
2023-05-20T10:33:35.071Z,60.2
2023-05-20T10:39:24.751Z,59.6
2023-05-20T10:44:24.753Z,59.1
2023-05-20T10:49:35.106Z,56.7
2023-05-20T10:55:24.777Z,55.3
2023-05-20T11:05:35.055Z,56.7
2023-05-20T11:16:24.837Z,57.1
2023-05-20T11:21:35.026Z,60.7
2023-05-20T11:32:24.867Z,59.6
2023-05-20T11:37:24.781Z,59.3
2023-05-20T11:42:35.063Z,61.4
2023-05-20T11:48:24.789Z,61.2
2023-05-20T11:53:24.829Z,59.1
2023-05-20T11:58:35.053Z,58.5
2023-05-20T12:03:35.160Z,57.5
2023-05-20T12:09:24.790Z,55.7
2023-05-20T12:14:35.051Z,56.8
2023-05-20T12:19:36.297Z,58.8
2023-05-20T12:25:24.768Z,57
2023-05-20T12:30:35.301Z,57.2
2023-05-20T12:36:24.778Z,56.4
2023-05-20T12:46:35.148Z,57.7
2023-05-20T12:52:24.860Z,57
2023-05-20T12:57:35.098Z,56.2
2023-05-20T13:03:24.827Z,56.1
2023-05-20T13:08:35.085Z,60.3
2023-05-20T13:14:24.829Z,60.3
2023-05-20T13:19:35.160Z,59
2023-05-20T13:25:24.820Z,57.7
2023-05-20T13:30:35.412Z,60.4
2023-05-20T13:47:24.842Z,58.8
2023-05-20T13:52:24.809Z,56.5
2023-05-20T13:57:35.086Z,55.5
2023-05-20T14:02:35.204Z,58.7
2023-05-20T14:08:24.814Z,56.9
2023-05-20T14:13:35.110Z,61.6
2023-05-20T14:19:24.844Z,60.2
2023-05-20T14:24:35.202Z,60.6
2023-05-20T14:29:35.123Z,60.6
2023-05-20T14:35:24.806Z,61.2
2023-05-20T14:40:35.257Z,62.6
2023-05-20T14:45:35.107Z,59.1
2023-05-20T14:51:24.808Z,60.4
2023-05-20T14:56:24.822Z,60.7
2023-05-20T15:01:24.873Z,67.5
2023-05-20T15:06:35.097Z,59.4
2023-05-20T15:11:35.135Z,60
2023-05-20T15:17:24.848Z,61.1
2023-05-20T15:22:35.131Z,64.3
2023-05-20T15:28:24.818Z,61.4
2023-05-20T15:33:25.092Z,63.3
2023-05-20T15:38:24.843Z,60.3
2023-05-20T15:43:24.843Z,61.6
2023-05-20T15:48:35.126Z,58.2
2023-05-20T15:54:24.811Z,62.1
2023-05-20T15:59:35.159Z,61.7
2023-05-20T16:05:24.822Z,60.8
2023-05-20T16:10:35.358Z,62
2023-05-20T16:16:24.950Z,60.3
2023-05-20T16:21:35.136Z,63.4
2023-05-20T16:26:35.141Z,61.9
2023-05-20T16:32:24.853Z,63
2023-05-20T16:37:35.156Z,61.3
2023-05-20T16:43:24.849Z,62.6
2023-05-20T16:48:35.156Z,61.8
2023-05-20T16:54:24.861Z,63.2
2023-05-20T16:59:35.137Z,65
2023-05-20T17:05:24.856Z,63.3
2023-05-20T17:10:24.853Z,64.1
2023-05-20T17:15:35.147Z,68.3
2023-05-20T17:21:24.860Z,67.6
2023-05-20T17:26:35.122Z,67.8
2023-05-20T17:31:35.135Z,70
2023-05-20T17:37:24.861Z,70.1
2023-05-20T17:42:35.158Z,68.2
2023-05-20T17:48:24.835Z,67.2
2023-05-20T17:53:24.860Z,70.1
2023-05-20T17:58:35.133Z,70.9
2023-05-20T18:04:24.876Z,72.6
2023-05-20T18:09:35.147Z,71.8
2023-05-20T18:15:24.875Z,73.6
2023-05-20T18:20:35.303Z,73.6
2023-05-20T18:26:24.899Z,71.8
2023-05-20T18:31:35.215Z,72.2
2023-05-20T18:37:24.867Z,73.1
2023-05-20T18:42:24.868Z,72.8
2023-05-20T18:47:35.210Z,72.5
2023-05-20T18:53:24.927Z,73.2
2023-05-20T18:58:25.354Z,73.5
2023-05-20T19:03:35.173Z,74.1
2023-05-20T19:08:35.168Z,76.2
2023-05-20T19:13:35.149Z,78.3
2023-05-20T19:18:35.164Z,78.8
2023-05-20T19:23:35.215Z,79.3
2023-05-20T19:29:24.898Z,80.1
2023-05-20T19:34:35.301Z,80.2
2023-05-20T19:39:35.221Z,81.2
2023-05-20T19:44:35.166Z,82.8
2023-05-20T19:50:24.896Z,83.2
2023-05-20T19:55:35.763Z,83.4
2023-05-20T20:01:24.939Z,84.6
2023-05-20T20:06:35.169Z,87.1
2023-05-20T20:11:35.168Z,87.6
2023-05-20T20:16:35.214Z,88.1
2023-05-20T20:22:24.885Z,88.2
2023-05-20T20:27:24.898Z,90.5
2023-05-20T20:32:24.944Z,91.9
2023-05-20T20:37:35.190Z,93.3
2023-05-20T20:42:35.187Z,93.5
2023-05-20T20:48:24.903Z,93.2
2023-05-20T20:53:35.160Z,93.7
2023-05-20T20:58:35.182Z,94.2
2023-05-20T21:03:35.176Z,94.8
2023-05-20T21:08:35.194Z,95.2
2023-05-20T21:14:24.914Z,97.4
2023-05-20T21:19:35.188Z,100
2023-05-20T21:25:24.914Z,99.2
2023-05-20T21:30:35.195Z,99.4
2023-05-20T21:36:24.910Z,100
2023-05-20T21:41:35.196Z,100
2023-05-20T21:47:25.007Z,100
2023-05-20T21:52:35.194Z,100
2023-05-20T21:57:35.184Z,100
2023-05-20T22:03:25.009Z,100
2023-05-20T22:08:24.920Z,100
2023-05-20T22:13:24.942Z,100
2023-05-20T22:18:24.953Z,98.9
2023-05-20T22:23:35.187Z,100
2023-05-20T22:29:24.895Z,99.7
2023-05-20T22:34:24.926Z,100
2023-05-20T22:39:24.961Z,100
2023-05-20T22:44:35.208Z,100
2023-05-20T22:50:24.932Z,100
2023-05-20T22:55:24.972Z,100
2023-05-20T23:05:35.387Z,100
2023-05-20T23:16:35.228Z,100
2023-05-20T23:22:24.912Z,100
2023-05-20T23:27:35.199Z,100
2023-05-20T23:33:26.120Z,100
2023-05-20T23:38:35.226Z,100
2023-05-20T23:43:35.248Z,100
2023-05-20T23:49:24.929Z,100
2023-05-20T23:54:24.934Z,100
2023-05-20T23:59:35.243Z,100
